createdAt,value
2018-10-16T00:01:25.825Z,65.00
2018-10-16T00:06:28.924Z,64.80
2018-10-16T00:11:32.028Z,64.90
2018-10-16T00:16:35.132Z,64.80
2018-10-16T00:21:38.236Z,64.70
2018-10-16T00:26:41.348Z,65.00
2018-10-16T00:31:44.573Z,64.90
2018-10-16T00:36:47.679Z,64.80
2018-10-16T00:41:54.740Z,64.80
2018-10-16T00:46:57.844Z,65.00
2018-10-16T00:52:00.961Z,65.00
2018-10-16T00:57:04.096Z,65.30
2018-10-16T01:02:07.196Z,65.20
2018-10-16T01:07:10.308Z,65.60
2018-10-16T01:12:13.424Z,65.90
2018-10-16T01:17:16.535Z,66.10
2018-10-16T01:22:19.647Z,66.10
2018-10-16T01:27:22.754Z,66.40
2018-10-16T01:32:25.862Z,66.60
2018-10-16T01:37:28.963Z,66.50
2018-10-16T01:42:32.078Z,66.80
2018-10-16T01:47:35.177Z,66.80
2018-10-16T01:52:38.292Z,66.90
2018-10-16T01:57:41.392Z,67.20
2018-10-16T02:02:44.577Z,67.30
2018-10-16T02:07:47.602Z,67.20
2018-10-16T02:12:50.704Z,66.60
2018-10-16T02:17:53.825Z,67.00
2018-10-16T02:22:56.932Z,67.50
2018-10-16T02:28:00.046Z,67.50
2018-10-16T02:33:03.158Z,68.30
2018-10-16T02:38:06.264Z,68.40
2018-10-16T02:43:09.365Z,68.00
2018-10-16T02:48:12.464Z,68.30
2018-10-16T02:53:15.568Z,68.30
2018-10-16T02:58:18.672Z,68.40
2018-10-16T03:03:21.778Z,68.50
2018-10-16T03:08:24.889Z,68.50
2018-10-16T03:13:28.011Z,68.40
2018-10-16T03:18:31.107Z,69.00
2018-10-16T03:23:34.212Z,68.90
2018-10-16T03:28:37.328Z,68.80
2018-10-16T03:33:40.441Z,68.50
2018-10-16T03:38:43.546Z,68.70
2018-10-16T03:43:56.837Z,68.40
2018-10-16T03:48:59.936Z,68.40
2018-10-16T03:54:03.037Z,69.70
2018-10-16T03:59:06.168Z,69.70
2018-10-16T04:04:09.269Z,70.00
2018-10-16T04:09:12.368Z,70.40
2018-10-16T04:14:15.473Z,70.20
2018-10-16T04:19:18.583Z,70.20
2018-10-16T04:24:21.681Z,70.30
2018-10-16T04:29:24.786Z,70.70
2018-10-16T04:34:27.898Z,70.80
2018-10-16T04:39:33.878Z,70.70
2018-10-16T04:44:36.969Z,70.70
2018-10-16T04:49:40.068Z,71.40
2018-10-16T04:54:43.171Z,71.30
2018-10-16T04:59:46.275Z,71.10
2018-10-16T05:04:49.374Z,71.30
2018-10-16T05:09:52.469Z,71.40
2018-10-16T05:14:55.575Z,71.70
2018-10-16T05:19:58.687Z,71.50
2018-10-16T05:25:02.373Z,71.60
2018-10-16T05:30:05.796Z,71.70
2018-10-16T05:35:09.268Z,71.40
2018-10-16T05:40:12.373Z,71.30
2018-10-16T05:45:15.476Z,71.30
2018-10-16T05:50:18.584Z,71.30
2018-10-16T05:55:21.691Z,71.50
2018-10-16T06:00:34.988Z,71.30
2018-10-16T06:05:38.220Z,71.40
2018-10-16T06:10:42.193Z,71.60
2018-10-16T06:15:45.271Z,71.50
2018-10-16T06:20:48.379Z,71.60
2018-10-16T06:25:51.488Z,72.00
2018-10-16T06:30:54.625Z,72.40
2018-10-16T06:35:57.728Z,72.50
2018-10-16T06:41:00.951Z,72.80
2018-10-16T06:46:04.005Z,73.10
2018-10-16T06:51:07.105Z,72.90
2018-10-16T06:56:10.228Z,73.00
2018-10-16T07:01:13.333Z,73.00
2018-10-16T07:06:16.500Z,73.00
2018-10-16T07:11:19.606Z,72.90
2018-10-16T07:16:22.712Z,72.70
2018-10-16T07:21:25.854Z,71.30
2018-10-16T07:26:28.936Z,71.20
2018-10-16T07:31:32.045Z,71.20
2018-10-16T07:36:35.181Z,70.80
2018-10-16T07:41:38.700Z,70.50
2018-10-16T07:46:41.803Z,70.20
2018-10-16T07:51:44.916Z,70.00
2018-10-16T07:56:48.088Z,69.90
2018-10-16T08:01:51.189Z,69.30
2018-10-16T08:06:54.297Z,69.40
2018-10-16T08:11:57.404Z,69.10
2018-10-16T08:17:00.539Z,69.10
2018-10-16T08:22:03.629Z,68.80
2018-10-16T08:27:06.741Z,68.20
2018-10-16T08:32:09.848Z,67.80
2018-10-16T08:37:19.424Z,68.30
2018-10-16T08:42:36.420Z,67.50
2018-10-16T08:47:50.958Z,66.90
2018-10-16T08:52:54.078Z,67.00
2018-10-16T08:57:57.181Z,66.30
2018-10-16T09:03:00.299Z,66.00
2018-10-16T09:08:03.415Z,65.10
2018-10-16T09:13:06.564Z,65.20
2018-10-16T09:18:09.668Z,65.20
2018-10-16T09:23:12.772Z,64.00
2018-10-16T09:28:15.889Z,63.20
2018-10-16T09:33:19.128Z,63.10
2018-10-16T09:38:22.200Z,62.40
2018-10-16T09:43:25.314Z,62.30
2018-10-16T09:48:28.435Z,61.90
2018-10-16T09:53:31.576Z,60.00
2018-10-16T09:58:34.688Z,61.20
2018-10-16T10:03:37.793Z,60.50
2018-10-16T10:08:41.012Z,60.30
2018-10-16T10:13:44.169Z,60.00
2018-10-16T10:18:47.336Z,60.30
2018-10-16T10:23:50.505Z,57.20
2018-10-16T10:28:53.615Z,58.90
2018-10-16T10:33:56.817Z,59.10
2018-10-16T10:38:59.932Z,58.10
2018-10-16T10:44:03.104Z,58.40
2018-10-16T10:49:06.225Z,58.10
2018-10-16T10:54:09.340Z,56.10
2018-10-16T10:59:12.445Z,57.40
2018-10-16T11:04:15.561Z,57.80
2018-10-16T11:09:18.685Z,56.80
2018-10-16T11:14:22.272Z,56.80
2018-10-16T11:19:25.469Z,56.70
2018-10-16T11:24:28.497Z,54.60
2018-10-16T11:29:31.604Z,55.70
2018-10-16T11:34:34.713Z,54.90
2018-10-16T11:39:37.820Z,56.40
2018-10-16T11:44:40.933Z,53.90
2018-10-16T11:49:44.037Z,52.80
2018-10-16T11:54:47.157Z,52.70
2018-10-16T11:59:50.289Z,53.60
2018-10-16T12:04:53.481Z,53.60
2018-10-16T12:09:56.588Z,51.60
2018-10-16T12:14:59.705Z,51.10
2018-10-16T12:20:06.180Z,52.20
2018-10-16T12:25:09.279Z,51.40
2018-10-16T12:30:12.338Z,51.10
2018-10-16T12:35:15.456Z,51.10
2018-10-16T12:40:18.719Z,52.00
2018-10-16T12:45:21.689Z,52.40
2018-10-16T12:50:24.852Z,51.40
2018-10-16T12:55:27.912Z,50.60
2018-10-16T13:00:31.034Z,51.00
2018-10-16T13:05:34.141Z,52.00
2018-10-16T13:10:37.289Z,50.50
2018-10-16T13:15:40.393Z,50.90
2018-10-16T13:20:43.508Z,51.10
2018-10-16T13:25:46.629Z,51.90
2018-10-16T13:30:49.740Z,51.50
2018-10-16T13:35:52.852Z,51.40
2018-10-16T13:40:55.956Z,51.00
2018-10-16T13:45:59.073Z,51.30
2018-10-16T13:51:02.205Z,50.60
2018-10-16T13:56:06.027Z,51.60
2018-10-16T14:01:09.105Z,50.40
2018-10-16T14:06:12.225Z,50.70
2018-10-16T14:11:15.337Z,51.10
2018-10-16T14:16:18.458Z,51.50
2018-10-16T14:21:21.561Z,51.70
2018-10-16T14:26:24.694Z,51.20
2018-10-16T14:31:27.792Z,49.80
2018-10-16T14:36:30.901Z,50.60
2018-10-16T14:41:34.010Z,50.40
2018-10-16T14:46:37.145Z,49.80
2018-10-16T14:51:40.260Z,50.40
2018-10-16T14:56:43.380Z,50.20
2018-10-16T15:01:46.492Z,49.60
2018-10-16T15:06:49.605Z,50.40
2018-10-16T15:11:52.713Z,51.10
2018-10-16T15:16:55.833Z,51.30
2018-10-16T15:21:58.961Z,51.20
2018-10-16T15:27:02.041Z,51.50
2018-10-16T15:32:05.701Z,51.60
2018-10-16T15:37:08.749Z,51.60
2018-10-16T15:42:11.908Z,52.20
2018-10-16T15:47:14.981Z,52.30
2018-10-16T15:52:18.076Z,52.70
2018-10-16T15:57:21.190Z,52.80
2018-10-16T16:02:24.345Z,53.00
2018-10-16T16:12:39.120Z,53.30
2018-10-16T16:17:42.580Z,54.10
2018-10-16T16:22:45.696Z,54.70
2018-10-16T16:27:48.812Z,54.90
2018-10-16T16:32:51.913Z,55.20
2018-10-16T16:37:55.038Z,55.50
2018-10-16T16:42:58.150Z,55.70
2018-10-16T16:48:01.253Z,56.10
2018-10-16T16:53:04.385Z,56.90
2018-10-16T16:58:07.524Z,57.30
2018-10-16T17:03:10.587Z,57.00
2018-10-16T17:08:13.739Z,57.30
2018-10-16T17:13:16.807Z,57.80
2018-10-16T17:18:19.968Z,58.70
2018-10-16T17:23:23.033Z,58.90
2018-10-16T17:28:26.157Z,58.60
2018-10-16T17:33:29.288Z,59.10
2018-10-16T17:38:32.716Z,58.80
2018-10-16T17:43:35.865Z,59.60
2018-10-16T17:48:38.973Z,59.70
2018-10-16T17:53:42.082Z,60.20
2018-10-16T17:58:45.196Z,60.20
2018-10-16T18:03:48.359Z,60.60
2018-10-16T18:08:51.486Z,61.10
2018-10-16T18:13:54.589Z,61.30
2018-10-16T18:18:57.692Z,61.30
2018-10-16T18:24:00.801Z,61.60
2018-10-16T18:29:03.936Z,61.80
2018-10-16T18:34:07.052Z,62.10
2018-10-16T18:39:10.236Z,62.20
2018-10-16T18:44:13.345Z,62.20
2018-10-16T18:49:16.449Z,62.70
2018-10-16T18:54:19.602Z,62.70
2018-10-16T18:59:22.768Z,62.60
2018-10-16T19:04:25.881Z,62.80
2018-10-16T19:09:29.020Z,63.10
2018-10-16T19:14:32.135Z,63.20
2018-10-16T19:19:35.243Z,63.40
2018-10-16T19:24:38.353Z,63.80
2018-10-16T19:29:41.456Z,64.10
2018-10-16T19:34:44.565Z,64.30
2018-10-16T19:39:47.702Z,64.40
2018-10-16T19:44:50.829Z,64.60
2018-10-16T19:49:53.933Z,64.60
2018-10-16T19:54:57.040Z,64.70
2018-10-16T20:00:00.419Z,65.30
2018-10-16T20:05:03.640Z,65.20
2018-10-16T20:10:07.825Z,65.40
2018-10-16T20:15:11.958Z,65.60
2018-10-16T20:20:15.096Z,65.60
2018-10-16T20:25:18.205Z,65.80
2018-10-16T20:30:21.311Z,65.80
2018-10-16T20:35:24.422Z,66.20
2018-10-16T20:40:27.549Z,66.70
2018-10-16T20:45:30.658Z,66.50
2018-10-16T20:50:33.756Z,67.00
2018-10-16T20:55:36.864Z,67.00
2018-10-16T21:00:40.405Z,67.00
2018-10-16T21:05:43.670Z,67.20
2018-10-16T21:10:46.732Z,67.20
2018-10-16T21:15:49.877Z,67.00
2018-10-16T21:20:53.019Z,67.10
2018-10-16T21:25:56.147Z,67.00
2018-10-16T21:30:59.318Z,67.10
2018-10-16T21:36:02.443Z,67.00
2018-10-16T21:41:05.807Z,67.30
2018-10-16T21:46:08.870Z,67.10
2018-10-16T21:51:12.150Z,67.50
2018-10-16T21:56:15.319Z,67.10
2018-10-16T22:01:18.458Z,67.30
2018-10-16T22:06:21.606Z,67.40
2018-10-16T22:11:25.066Z,67.70
2018-10-16T22:16:28.173Z,67.60
2018-10-16T22:21:31.276Z,67.60
2018-10-16T22:26:34.384Z,67.40
2018-10-16T22:31:37.497Z,67.30
2018-10-16T22:36:40.588Z,67.60
2018-10-16T22:41:43.696Z,67.40
2018-10-16T22:46:46.860Z,67.60
2018-10-16T22:51:50.056Z,67.70
2018-10-16T22:56:53.180Z,67.60
2018-10-16T23:01:56.356Z,67.70
2018-10-16T23:06:59.528Z,67.90
2018-10-16T23:12:02.651Z,68.10
2018-10-16T23:17:05.867Z,68.00
2018-10-16T23:22:08.970Z,68.10
2018-10-16T23:27:12.106Z,68.30
2018-10-16T23:32:15.242Z,68.20
2018-10-16T23:37:18.383Z,68.20
2018-10-16T23:42:21.522Z,68.40
2018-10-16T23:47:24.662Z,68.80
2018-10-16T23:52:27.802Z,68.80
2018-10-16T23:57:30.939Z,69.10
